ADDS METAR Data INFO
IDs: Format: Raw Decoded Include TAF

Data at: 1953 UTC 15 Dec 2017

KO69 151935Z AUTO 00000KT 7SM 12/06 A3016 RMK A01
KO69 151915Z AUTO A3017 RMK A01
KO69 151855Z AUTO VRB03KT 8SM 11/07 A3019 RMK A01
KO69 151835Z AUTO 00000KT 8SM 10/07 A3020 RMK A01
KO69 151815Z AUTO 000KT 8SM 10/07 A3021 RMK A01
KO69 151755Z AUTO 00000KT 5SM HZ A3021 RMK A01
KO69 151735Z AUTO 00000KT 5SM BR 08/06 A3021 RMK A01
KO69 151715Z AUTO 00000KT 6SM BR 07/05 A3020 RMK A01
KO69 151655Z AUTO 00000KT 7SM 06/05 A3020 RMK A01
KO69 151635Z AUTO 00000KT 6SM BR CLR 03/03 A3019 RMK A01
KO69 151615Z AUTO 00000KT 6SM BR CLR 03/03 A3020 RMK A01
KO69 151555Z AUTO 00000KT 4SM BR CLR 02/02 A3019 RMK A01
KO69 151535Z AUTO 13003KT 3SM BR 03/03 A3018 RMK A01
KO69 151515Z AUTO 00000KT 6SM BR 03/03 A3019 RMK A01
KO69 151455Z AUTO 00000KT 5SM BR 02/02 A3018 RMK A01
KO69 151435Z AUTO 00000KT 5SM BR 02/02 A3019 RMK A01
KO69 151415Z AUTO 5SM BR 02/02 RMK A01
KO69 151355Z AUTO 00000KT 3SM BR 01/01 A3017 RMK A01
KO69 151335Z AUTO 00000KT 4SM BR BKN021 01/01 A3018 RMK A01
KO69 151315Z AUTO 00000KT 3SM BR BKN020 01/01 A3018 RMK A01
KO69 151255Z AUTO 00000KT 4SM BR SCT019 01/01 A3017 RMK A01
KO69 151235Z AUTO 00000KT 4SM BR BKN020 01/01 A3017 RMK A01
KO69 151215Z AUTO 00000KT 3SM BR BKN021 01/01 A3018 RMK A01
KO69 151155Z AUTO 00000KT 4SM BR BKN020 02/02 A3019 RMK A01
KO69 151135Z AUTO 00000KT 3SM BR BKN019 01/01 A3019 RMK A01
KO69 151115Z AUTO 00000KT 3SM BR OVC019 02/02 A3020 RMK A01
KO69 151055Z AUTO 00000KT 3SM BR BKN019 02/02 A3020 RMK A01
KO69 151035Z AUTO 00000KT 5SM BR BKN018 02/02 A3019 RMK A01
KO69 151015Z AUTO 00000KT 4SM BR BKN018 03/02 A3019 RMK A01
KO69 150955Z AUTO 00000KT 4SM BR BKN017 02/02 A3019 RMK A01
KO69 150935Z AUTO 00000KT 6SM BR BKN017 03/03 A3019 RMK A01
KO69 150915Z AUTO 00000KT 6SM BR OVC018 03/03 A3018 RMK A01
KO69 150855Z AUTO 00000KT 5SM BR BKN018 02/02 A3018 RMK A01
KO69 150835Z AUTO 00000KT 6SM BR OVC019 03/03 A3018 RMK A01
KO69 150815Z AUTO 00000KT 5SM BR OVC020 03/03 A3018 RMK A01
KO69 150755Z AUTO 00000KT 6SM BR OVC019 03/03 A3018 RMK A01
KO69 150735Z AUTO 00000KT 5SM BR BKN018 04/03 A3018 RMK A01
KO69 150715Z AUTO 00000KT 6SM BR CLR 04/04 A3018 RMK A01
KO69 150655Z AUTO 00000KT 9SM FEW020 04/03 A3018 RMK A01
KO69 150635Z AUTO 00000KT 10SM BKN020 04/03 A3017 RMK A01
KO69 150615Z AUTO 00000KT 10SM SCT020 04/03 A3017 RMK A01
KO69 150555Z AUTO 00000KT 10SM FEW018 04/02 A3017 RMK A01
KO69 150535Z AUTO 00000KT 10SM FEW018 04/03 A3017 RMK A01
KO69 150515Z AUTO 00000KT 10SM FEW019 04/03 A3016 RMK A01
KO69 150455Z AUTO 00000KT 10SM FEW018 04/03 A3016 RMK A01
KO69 150435Z AUTO 00000KT 10SM FEW018 05/03 A3016 RMK A01
KO69 150415Z AUTO 00000KT 10SM CLR 05/03 A3015 RMK A01
KO69 150355Z AUTO 00000KT 10SM CLR 06/04 A3015 RMK A01
KO69 150335Z AUTO 00000KT 10SM CLR 05/03 A3015 RMK A01
KO69 150315Z AUTO 00000KT 10SM CLR 06/03 A3014 RMK A01
KO69 150255Z AUTO 00000KT 10SM CLR 06/04 A3014 RMK A01
KO69 150235Z AUTO 00000KT 10SM CLR 07/04 A3014 RMK A01
KO69 150215Z AUTO 00000KT 10SM CLR 08/04 A3014 RMK A01
KO69 150155Z AUTO 00000KT 10SM CLR 09/04 A3013 RMK A01
KO69 150135Z AUTO 00000KT 10SM CLR 10/04 A3012 RMK A01
KO69 150115Z AUTO 00000KT 10SM CLR 11/04 A3012 RMK A01
KO69 150055Z AUTO 00000KT 10SM CLR 12/04 A3012 RMK A01
KO69 150035Z AUTO 08003KT 10SM CLR 14/04 A3011 RMK A01
KO69 150015Z AUTO 15003KT 10SM CLR 16/03 A3011 RMK A01
KO69 142355Z AUTO 15006KT 10SM CLR 17/03 A3010 RMK A01
KO69 142335Z AUTO 15005KT 10SM CLR 17/03 A3010 RMK A01
KO69 142315Z AUTO 17006KT 10SM CLR 17/04 A3010 RMK A01
KO69 142255Z AUTO 16006KT 10SM CLR 17/03 A3010 RMK A01
KO69 142235Z AUTO 16007KT 10SM CLR 18/03 A3009 RMK A01
KO69 142215Z AUTO 14007KT 10SM CLR 18/03 A3009 RMK A01
KO69 142155Z AUTO 14007KT 10SM CLR 17/03 A3009 RMK A01
KO69 142135Z AUTO 15007KT 10SM CLR 18/02 A3009 RMK A01
KO69 142115Z AUTO VRB05KT 10SM CLR 17/03 A3010 RMK A01
KO69 142055Z AUTO 15006KT 10SM CLR 17/03 A3010 RMK A01
KO69 142035Z AUTO 18004KT 10SM CLR 17/04 A3011 RMK A01
KO69 142015Z AUTO 15005KT 10SM CLR 16/04 A3011 RMK A01
KO69 141955Z AUTO VRB05KT 10SM CLR 16/05 A3011 RMK A01
KO69 141935Z AUTO VRB04KT 10SM CLR 15/05 A3012 RMK A01
KO69 141915Z AUTO 16005KT 10SM CLR 14/05 A3012 RMK A01
KO69 141855Z AUTO 16007KT 10SM 13/06 A3013 RMK A01
KO69 141835Z AUTO 00000KT 10SM CLR 11/07 A3013 RMK A01
KO69 141815Z AUTO VRB03KT 10SM 09/06 A3013 RMK A01
KO69 141755Z AUTO 00000KT 10SM 08/06 A3014 RMK A01
KO69 141735Z AUTO 00000KT 10SM 06/06 A3014 RMK A01
KO69 141715Z AUTO 00000KT 10SM 06/06 A3013 RMK A01
KO69 141655Z AUTO 00000KT 8SM 04/04 A3013 RMK A01
KO69 141635Z AUTO 00000KT 8SM 02/02 A3012 RMK A01
KO69 141615Z AUTO 00000KT 6SM BR 00/00 A3011 RMK A01
KO69 141555Z AUTO 4SM BR M00/M00 A3011 RMK A01
KO69 141535Z AUTO 00000KT 1 1/4SM BR M00/M00 A3010 RMK A01
KO69 141515Z AUTO 00000KT 3SM BR M00/M00 A3010 RMK A01
KO69 141455Z AUTO 00000KT 2 1/2SM BR 00/00 A3010 RMK A01
KO69 141435Z AUTO 00000KT 4SM BR 01/01 A3009 RMK A01
KO69 141415Z AUTO 00000KT 4SM BR CLR M00/M00 RMK A01
KO69 141355Z AUTO 00000KT 5SM BR 00/00 A3008 RMK A01
KO69 141335Z AUTO 00000KT 6SM BR CLR 00/00 A3008 RMK A01
KO69 141315Z AUTO 00000KT 5SM BR CLR 01/01 A3007 RMK A01
KO69 141255Z AUTO 00000KT 5SM BR CLR 01/01 A3007 RMK A01
KO69 141235Z AUTO 00000KT 6SM BR CLR 01/01 A3007 RMK A01
KO69 141215Z AUTO 00000KT 7SM CLR 01/01 A3006 RMK A01
KO69 141155Z AUTO 00000KT 4SM BR CLR 01/01 A3006 RMK A01
KO69 141135Z AUTO 00000KT 2 1/2SM BR CLR 01/01 A3006 RMK A01
KO69 141115Z AUTO 00000KT 1/4SM FG BKN001 01/01 A3007 RMK A01
KO69 141055Z AUTO 00000KT 1/4SM FG BKN001 01/01 A3007 RMK A01
KO69 141035Z AUTO 00000KT 1/4SM FG BKN001 02/02 A3007 RMK A01
KO69 141015Z AUTO 00000KT 1/4SM FG OVC001 03/03 A3007 RMK A01
KO69 140955Z AUTO 00000KT M1/4SM FG OVC002 03/03 A3008 RMK A01
KO69 140935Z AUTO 00000KT 1/4SM FG OVC002 02/02 A3007 RMK A01
KO69 140915Z AUTO 00000KT 1/4SM FG OVC001 02/02 A3007 RMK A01
KO69 140855Z AUTO 00000KT 1/4SM FG OVC002 03/03 A3008 RMK A01
KO69 140835Z AUTO 00000KT M1/4SM FG OVC002 03/03 A3008 RMK A01
KO69 140815Z AUTO 00000KT 1/4SM FG OVC002 03/03 A3008 RMK A01
KO69 140755Z AUTO 00000KT M1/4SM FG OVC002 04/04 A3008 RMK A01